sensor_id;sensor_type;location;lat;lon;timestamp;P1;durP1;ratioP1;P2;durP2;ratioP2
73869;SDS011;64924;42.140;24.762;2022-11-20T00:01:21;51.47;;;34.22;;
73869;SDS011;64924;42.140;24.762;2022-11-20T00:03:50;54.90;;;33.92;;
73869;SDS011;64924;42.140;24.762;2022-11-20T00:06:17;51.75;;;32.95;;
73869;SDS011;64924;42.140;24.762;2022-11-20T00:08:43;52.38;;;34.42;;
73869;SDS011;64924;42.140;24.762;2022-11-20T00:11:11;53.70;;;34.03;;
73869;SDS011;64924;42.140;24.762;2022-11-20T00:13:41;57.88;;;33.55;;
73869;SDS011;64924;42.140;24.762;2022-11-20T00:16:08;55.63;;;35.03;;
73869;SDS011;64924;42.140;24.762;2022-11-20T00:18:39;53.05;;;34.50;;
73869;SDS011;64924;42.140;24.762;2022-11-20T00:21:09;51.47;;;35.08;;
73869;SDS011;64924;42.140;24.762;2022-11-20T00:23:38;52.13;;;32.45;;
73869;SDS011;64924;42.140;24.762;2022-11-20T00:26:04;59.67;;;36.08;;
73869;SDS011;64924;42.140;24.762;2022-11-20T00:28:34;46.22;;;33.38;;
73869;SDS011;64924;42.140;24.762;2022-11-20T00:31:04;55.60;;;33.92;;
73869;SDS011;64924;42.140;24.762;2022-11-20T00:33:37;49.47;;;34.03;;
73869;SDS011;64924;42.140;24.762;2022-11-20T00:36:03;48.83;;;34.10;;
73869;SDS011;64924;42.140;24.762;2022-11-20T00:38:31;57.78;;;33.05;;
73869;SDS011;64924;42.140;24.762;2022-11-20T00:40:58;47.05;;;31.48;;
73869;SDS011;64924;42.140;24.762;2022-11-20T00:43:25;51.20;;;34.10;;
73869;SDS011;64924;42.140;24.762;2022-11-20T00:45:57;50.97;;;34.22;;
73869;SDS011;64924;42.140;24.762;2022-11-20T00:48:30;50.78;;;34.53;;
73869;SDS011;64924;42.140;24.762;2022-11-20T00:50:56;57.47;;;33.72;;
73869;SDS011;64924;42.140;24.762;2022-11-20T00:53:22;53.60;;;34.65;;
73869;SDS011;64924;42.140;24.762;2022-11-20T00:55:54;58.33;;;35.05;;
73869;SDS011;64924;42.140;24.762;2022-11-20T00:58:21;51.72;;;34.72;;
73869;SDS011;64924;42.140;24.762;2022-11-20T01:00:47;55.30;;;32.97;;
73869;SDS011;64924;42.140;24.762;2022-11-20T01:03:14;53.45;;;33.28;;
73869;SDS011;64924;42.140;24.762;2022-11-20T01:05:41;48.88;;;31.58;;
73869;SDS011;64924;42.140;24.762;2022-11-20T01:08:06;52.08;;;32.42;;
73869;SDS011;64924;42.140;24.762;2022-11-20T01:10:32;49.10;;;32.67;;
73869;SDS011;64924;42.140;24.762;2022-11-20T01:12:57;52.42;;;32.50;;
73869;SDS011;64924;42.140;24.762;2022-11-20T01:15:41;50.15;;;34.00;;
73869;SDS011;64924;42.140;24.762;2022-11-20T01:18:06;50.15;;;33.42;;
73869;SDS011;64924;42.140;24.762;2022-11-20T01:20:35;47.38;;;32.67;;
73869;SDS011;64924;42.140;24.762;2022-11-20T01:23:02;49.63;;;32.03;;
73869;SDS011;64924;42.140;24.762;2022-11-20T01:25:28;50.58;;;31.83;;
73869;SDS011;64924;42.140;24.762;2022-11-20T01:27:53;49.53;;;32.70;;
73869;SDS011;64924;42.140;24.762;2022-11-20T01:30:19;50.40;;;33.60;;
73869;SDS011;64924;42.140;24.762;2022-11-20T01:32:44;55.80;;;34.85;;
73869;SDS011;64924;42.140;24.762;2022-11-20T01:35:10;49.63;;;33.08;;
73869;SDS011;64924;42.140;24.762;2022-11-20T01:37:35;50.13;;;31.95;;
73869;SDS011;64924;42.140;24.762;2022-11-20T01:40:01;57.15;;;34.75;;
73869;SDS011;64924;42.140;24.762;2022-11-20T01:42:27;49.78;;;32.92;;
73869;SDS011;64924;42.140;24.762;2022-11-20T01:48:12;54.70;;;32.95;;
73869;SDS011;64924;42.140;24.762;2022-11-20T01:50:38;50.22;;;32.95;;
73869;SDS011;64924;42.140;24.762;2022-11-20T01:53:07;50.20;;;30.48;;
73869;SDS011;64924;42.140;24.762;2022-11-20T01:55:36;48.40;;;32.55;;
73869;SDS011;64924;42.140;24.762;2022-11-20T01:58:14;54.07;;;35.30;;
73869;SDS011;64924;42.140;24.762;2022-11-20T02:00:41;47.38;;;32.05;;
73869;SDS011;64924;42.140;24.762;2022-11-20T02:03:09;49.70;;;31.35;;
73869;SDS011;64924;42.140;24.762;2022-11-20T02:05:39;49.15;;;32.42;;
73869;SDS011;64924;42.140;24.762;2022-11-20T02:08:11;47.60;;;30.02;;
73869;SDS011;64924;42.140;24.762;2022-11-20T02:10:37;48.38;;;31.65;;
73869;SDS011;64924;42.140;24.762;2022-11-20T02:13:03;49.20;;;32.28;;
73869;SDS011;64924;42.140;24.762;2022-11-20T02:15:47;46.50;;;31.60;;
73869;SDS011;64924;42.140;24.762;2022-11-20T02:18:14;49.20;;;33.08;;
73869;SDS011;64924;42.140;24.762;2022-11-20T02:20:42;51.75;;;32.67;;
73869;SDS011;64924;42.140;24.762;2022-11-20T02:23:17;49.65;;;31.73;;
73869;SDS011;64924;42.140;24.762;2022-11-20T02:25:53;45.53;;;31.13;;
73869;SDS011;64924;42.140;24.762;2022-11-20T02:28:21;53.22;;;32.92;;
73869;SDS011;64924;42.140;24.762;2022-11-20T02:30:47;49.70;;;32.42;;
73869;SDS011;64924;42.140;24.762;2022-11-20T02:33:13;50.65;;;33.63;;
73869;SDS011;64924;42.140;24.762;2022-11-20T02:35:39;47.20;;;31.23;;
73869;SDS011;64924;42.140;24.762;2022-11-20T02:38:06;46.85;;;31.33;;
73869;SDS011;64924;42.140;24.762;2022-11-20T02:40:32;51.00;;;32.95;;
73869;SDS011;64924;42.140;24.762;2022-11-20T02:42:57;55.95;;;32.83;;
73869;SDS011;64924;42.140;24.762;2022-11-20T02:45:23;46.88;;;29.95;;
73869;SDS011;64924;42.140;24.762;2022-11-20T02:47:50;47.58;;;31.35;;
73869;SDS011;64924;42.140;24.762;2022-11-20T02:50:16;49.45;;;30.67;;
73869;SDS011;64924;42.140;24.762;2022-11-20T02:52:41;49.38;;;32.38;;
73869;SDS011;64924;42.140;24.762;2022-11-20T02:55:07;48.95;;;32.40;;
73869;SDS011;64924;42.140;24.762;2022-11-20T02:57:33;42.80;;;29.15;;
73869;SDS011;64924;42.140;24.762;2022-11-20T02:59:58;47.00;;;30.95;;
73869;SDS011;64924;42.140;24.762;2022-11-20T03:02:24;46.50;;;29.65;;
73869;SDS011;64924;42.140;24.762;2022-11-20T03:04:49;43.83;;;30.40;;
73869;SDS011;64924;42.140;24.762;2022-11-20T03:07:15;48.05;;;28.90;;
73869;SDS011;64924;42.140;24.762;2022-11-20T03:09:40;42.63;;;28.67;;
73869;SDS011;64924;42.140;24.762;2022-11-20T03:12:06;53.78;;;30.90;;
73869;SDS011;64924;42.140;24.762;2022-11-20T03:14:31;46.72;;;28.45;;
73869;SDS011;64924;42.140;24.762;2022-11-20T03:16:57;51.20;;;27.95;;
73869;SDS011;64924;42.140;24.762;2022-11-20T03:19:23;44.03;;;28.30;;
73869;SDS011;64924;42.140;24.762;2022-11-20T03:21:48;43.90;;;28.65;;
73869;SDS011;64924;42.140;24.762;2022-11-20T03:24:14;45.55;;;27.30;;
73869;SDS011;64924;42.140;24.762;2022-11-20T03:26:40;42.00;;;27.88;;
73869;SDS011;64924;42.140;24.762;2022-11-20T03:29:06;46.25;;;28.67;;
73869;SDS011;64924;42.140;24.762;2022-11-20T03:31:35;43.95;;;27.92;;
73869;SDS011;64924;42.140;24.762;2022-11-20T03:34:03;41.85;;;28.42;;
73869;SDS011;64924;42.140;24.762;2022-11-20T03:36:29;46.60;;;26.83;;
73869;SDS011;64924;42.140;24.762;2022-11-20T03:38:55;46.03;;;27.73;;
73869;SDS011;64924;42.140;24.762;2022-11-20T03:41:23;45.75;;;27.85;;
73869;SDS011;64924;42.140;24.762;2022-11-20T03:43:54;51.67;;;28.95;;
73869;SDS011;64924;42.140;24.762;2022-11-20T03:46:21;41.35;;;24.65;;
73869;SDS011;64924;42.140;24.762;2022-11-20T03:48:47;42.58;;;21.45;;
73869;SDS011;64924;42.140;24.762;2022-11-20T03:51:14;36.90;;;22.13;;
73869;SDS011;64924;42.140;24.762;2022-11-20T03:53:43;35.60;;;22.23;;
73869;SDS011;64924;42.140;24.762;2022-11-20T03:56:09;36.00;;;21.98;;
73869;SDS011;64924;42.140;24.762;2022-11-20T03:58:37;35.67;;;20.42;;
73869;SDS011;64924;42.140;24.762;2022-11-20T04:01:06;32.60;;;20.55;;
73869;SDS011;64924;42.140;24.762;2022-11-20T04:03:39;31.55;;;19.27;;
73869;SDS011;64924;42.140;24.762;2022-11-20T04:06:06;31.58;;;17.63;;
73869;SDS011;64924;42.140;24.762;2022-11-20T04:08:40;26.98;;;17.13;;
73869;SDS011;64924;42.140;24.762;2022-11-20T04:11:19;30.17;;;16.30;;
73869;SDS011;64924;42.140;24.762;2022-11-20T04:13:54;32.85;;;14.98;;
73869;SDS011;64924;42.140;24.762;2022-11-20T04:16:21;31.88;;;16.27;;
73869;SDS011;64924;42.140;24.762;2022-11-20T04:18:51;23.60;;;13.43;;
73869;SDS011;64924;42.140;24.762;2022-11-20T04:21:18;27.10;;;14.23;;
73869;SDS011;64924;42.140;24.762;2022-11-20T04:23:43;23.88;;;11.75;;
73869;SDS011;64924;42.140;24.762;2022-11-20T04:26:09;24.27;;;12.02;;
73869;SDS011;64924;42.140;24.762;2022-11-20T04:28:36;28.25;;;12.57;;
73869;SDS011;64924;42.140;24.762;2022-11-20T04:31:07;27.30;;;11.52;;
73869;SDS011;64924;42.140;24.762;2022-11-20T04:33:39;28.65;;;12.82;;
73869;SDS011;64924;42.140;24.762;2022-11-20T04:36:12;24.75;;;13.32;;
73869;SDS011;64924;42.140;24.762;2022-11-20T04:38:40;25.38;;;12.57;;
73869;SDS011;64924;42.140;24.762;2022-11-20T04:41:06;31.33;;;13.27;;
73869;SDS011;64924;42.140;24.762;2022-11-20T04:43:36;22.55;;;11.15;;
73869;SDS011;64924;42.140;24.762;2022-11-20T04:46:01;26.77;;;10.98;;
73869;SDS011;64924;42.140;24.762;2022-11-20T04:48:27;18.58;;;9.70;;
73869;SDS011;64924;42.140;24.762;2022-11-20T04:50:54;21.30;;;9.93;;
73869;SDS011;64924;42.140;24.762;2022-11-20T04:53:20;21.77;;;9.25;;
73869;SDS011;64924;42.140;24.762;2022-11-20T04:55:46;19.02;;;9.13;;
73869;SDS011;64924;42.140;24.762;2022-11-20T04:58:12;20.63;;;8.88;;
73869;SDS011;64924;42.140;24.762;2022-11-20T05:00:38;23.77;;;8.57;;
73869;SDS011;64924;42.140;24.762;2022-11-20T05:03:04;17.40;;;8.32;;
73869;SDS011;64924;42.140;24.762;2022-11-20T05:05:30;15.82;;;7.68;;
73869;SDS011;64924;42.140;24.762;2022-11-20T05:07:56;19.10;;;7.63;;
73869;SDS011;64924;42.140;24.762;2022-11-20T05:10:23;15.13;;;7.30;;
73869;SDS011;64924;42.140;24.762;2022-11-20T05:12:49;22.55;;;7.90;;
73869;SDS011;64924;42.140;24.762;2022-11-20T05:15:14;18.00;;;8.10;;
73869;SDS011;64924;42.140;24.762;2022-11-20T05:17:40;17.42;;;9.10;;
73869;SDS011;64924;42.140;24.762;2022-11-20T05:20:05;22.80;;;10.02;;
73869;SDS011;64924;42.140;24.762;2022-11-20T05:22:31;16.08;;;8.93;;
73869;SDS011;64924;42.140;24.762;2022-11-20T05:24:57;21.70;;;9.00;;
73869;SDS011;64924;42.140;24.762;2022-11-20T05:27:22;16.85;;;7.78;;
73869;SDS011;64924;42.140;24.762;2022-11-20T05:29:48;21.48;;;8.23;;
73869;SDS011;64924;42.140;24.762;2022-11-20T05:32:14;17.75;;;7.50;;
73869;SDS011;64924;42.140;24.762;2022-11-20T05:34:39;22.23;;;7.85;;
73869;SDS011;64924;42.140;24.762;2022-11-20T05:37:04;13.77;;;7.50;;
73869;SDS011;64924;42.140;24.762;2022-11-20T05:39:30;18.42;;;8.00;;
73869;SDS011;64924;42.140;24.762;2022-11-20T05:41:55;17.88;;;7.70;;
73869;SDS011;64924;42.140;24.762;2022-11-20T05:44:41;25.27;;;9.40;;
73869;SDS011;64924;42.140;24.762;2022-11-20T05:47:06;18.20;;;7.60;;
73869;SDS011;64924;42.140;24.762;2022-11-20T05:49:32;19.92;;;7.78;;
73869;SDS011;64924;42.140;24.762;2022-11-20T05:51:58;15.73;;;8.88;;
73869;SDS011;64924;42.140;24.762;2022-11-20T05:54:23;20.83;;;7.90;;
73869;SDS011;64924;42.140;24.762;2022-11-20T05:56:49;21.83;;;10.00;;
73869;SDS011;64924;42.140;24.762;2022-11-20T05:59:14;25.40;;;9.23;;
73869;SDS011;64924;42.140;24.762;2022-11-20T06:01:40;20.77;;;10.18;;
73869;SDS011;64924;42.140;24.762;2022-11-20T06:04:05;24.23;;;10.75;;
73869;SDS011;64924;42.140;24.762;2022-11-20T06:06:31;20.27;;;9.35;;
73869;SDS011;64924;42.140;24.762;2022-11-20T06:08:56;22.67;;;10.30;;
73869;SDS011;64924;42.140;24.762;2022-11-20T06:11:23;16.00;;;8.70;;
73869;SDS011;64924;42.140;24.762;2022-11-20T06:13:49;25.80;;;10.85;;
73869;SDS011;64924;42.140;24.762;2022-11-20T06:16:16;22.63;;;9.98;;
73869;SDS011;64924;42.140;24.762;2022-11-20T06:18:43;16.52;;;6.47;;
73869;SDS011;64924;42.140;24.762;2022-11-20T06:21:10;13.30;;;6.20;;
73869;SDS011;64924;42.140;24.762;2022-11-20T06:23:36;18.52;;;8.40;;
73869;SDS011;64924;42.140;24.762;2022-11-20T06:26:03;19.55;;;8.25;;
73869;SDS011;64924;42.140;24.762;2022-11-20T06:28:30;21.25;;;8.23;;
73869;SDS011;64924;42.140;24.762;2022-11-20T06:30:56;17.67;;;8.63;;
73869;SDS011;64924;42.140;24.762;2022-11-20T06:33:21;19.88;;;10.50;;
73869;SDS011;64924;42.140;24.762;2022-11-20T06:35:47;20.13;;;9.88;;
73869;SDS011;64924;42.140;24.762;2022-11-20T06:38:12;22.23;;;10.07;;
73869;SDS011;64924;42.140;24.762;2022-11-20T06:40:41;18.92;;;8.30;;
73869;SDS011;64924;42.140;24.762;2022-11-20T06:43:08;14.73;;;7.63;;
73869;SDS011;64924;42.140;24.762;2022-11-20T06:45:34;18.27;;;7.53;;
73869;SDS011;64924;42.140;24.762;2022-11-20T06:47:59;18.10;;;8.35;;
73869;SDS011;64924;42.140;24.762;2022-11-20T06:50:25;16.13;;;9.15;;
73869;SDS011;64924;42.140;24.762;2022-11-20T06:52:50;21.73;;;10.23;;
73869;SDS011;64924;42.140;24.762;2022-11-20T06:55:16;21.25;;;10.18;;
73869;SDS011;64924;42.140;24.762;2022-11-20T06:57:41;26.02;;;12.02;;
73869;SDS011;64924;42.140;24.762;2022-11-20T07:00:07;28.75;;;12.68;;
73869;SDS011;64924;42.140;24.762;2022-11-20T07:02:33;26.00;;;12.75;;
73869;SDS011;64924;42.140;24.762;2022-11-20T07:04:58;22.90;;;12.52;;
73869;SDS011;64924;42.140;24.762;2022-11-20T07:07:23;24.75;;;11.73;;
73869;SDS011;64924;42.140;24.762;2022-11-20T07:09:49;20.85;;;11.73;;
73869;SDS011;64924;42.140;24.762;2022-11-20T07:12:14;24.60;;;13.07;;
73869;SDS011;64924;42.140;24.762;2022-11-20T07:14:40;24.17;;;11.48;;
73869;SDS011;64924;42.140;24.762;2022-11-20T07:17:05;20.33;;;12.52;;
73869;SDS011;64924;42.140;24.762;2022-11-20T07:19:31;24.58;;;13.10;;
73869;SDS011;64924;42.140;24.762;2022-11-20T07:21:56;29.02;;;14.60;;
73869;SDS011;64924;42.140;24.762;2022-11-20T07:24:22;21.15;;;13.55;;
73869;SDS011;64924;42.140;24.762;2022-11-20T07:26:47;20.98;;;12.30;;
73869;SDS011;64924;42.140;24.762;2022-11-20T07:29:14;19.73;;;10.75;;
73869;SDS011;64924;42.140;24.762;2022-11-20T07:31:40;18.00;;;10.60;;
73869;SDS011;64924;42.140;24.762;2022-11-20T07:34:05;16.10;;;7.65;;
73869;SDS011;64924;42.140;24.762;2022-11-20T07:36:31;21.65;;;9.93;;
73869;SDS011;64924;42.140;24.762;2022-11-20T07:38:56;20.88;;;9.35;;
73869;SDS011;64924;42.140;24.762;2022-11-20T07:41:22;21.67;;;11.02;;
73869;SDS011;64924;42.140;24.762;2022-11-20T07:43:47;23.58;;;11.23;;
73869;SDS011;64924;42.140;24.762;2022-11-20T07:46:13;20.20;;;11.68;;
73869;SDS011;64924;42.140;24.762;2022-11-20T07:48:39;24.75;;;11.07;;
73869;SDS011;64924;42.140;24.762;2022-11-20T07:51:04;23.20;;;10.30;;
73869;SDS011;64924;42.140;24.762;2022-11-20T07:53:30;22.13;;;11.10;;
73869;SDS011;64924;42.140;24.762;2022-11-20T07:55:58;26.58;;;12.30;;
73869;SDS011;64924;42.140;24.762;2022-11-20T07:58:25;21.85;;;12.77;;
73869;SDS011;64924;42.140;24.762;2022-11-20T08:00:50;20.27;;;11.43;;
73869;SDS011;64924;42.140;24.762;2022-11-20T08:03:16;22.92;;;11.57;;
73869;SDS011;64924;42.140;24.762;2022-11-20T08:05:41;20.17;;;11.20;;
73869;SDS011;64924;42.140;24.762;2022-11-20T08:08:07;27.00;;;11.35;;
73869;SDS011;64924;42.140;24.762;2022-11-20T08:10:33;25.55;;;14.15;;
73869;SDS011;64924;42.140;24.762;2022-11-20T08:12:58;24.98;;;11.20;;
73869;SDS011;64924;42.140;24.762;2022-11-20T08:15:47;24.95;;;12.13;;
73869;SDS011;64924;42.140;24.762;2022-11-20T08:18:13;25.75;;;11.32;;
73869;SDS011;64924;42.140;24.762;2022-11-20T08:20:39;30.73;;;15.68;;
73869;SDS011;64924;42.140;24.762;2022-11-20T08:23:06;28.42;;;15.63;;
73869;SDS011;64924;42.140;24.762;2022-11-20T08:25:32;25.23;;;10.25;;
73869;SDS011;64924;42.140;24.762;2022-11-20T08:28:00;20.48;;;8.43;;
73869;SDS011;64924;42.140;24.762;2022-11-20T08:30:27;20.98;;;9.20;;
73869;SDS011;64924;42.140;24.762;2022-11-20T08:32:54;15.40;;;8.10;;
73869;SDS011;64924;42.140;24.762;2022-11-20T08:35:20;22.42;;;8.35;;
73869;SDS011;64924;42.140;24.762;2022-11-20T08:37:46;20.48;;;8.32;;
73869;SDS011;64924;42.140;24.762;2022-11-20T08:40:12;14.48;;;8.05;;
73869;SDS011;64924;42.140;24.762;2022-11-20T08:42:45;16.08;;;7.80;;
73869;SDS011;64924;42.140;24.762;2022-11-20T08:45:14;15.25;;;6.10;;
73869;SDS011;64924;42.140;24.762;2022-11-20T08:47:41;11.85;;;6.90;;
73869;SDS011;64924;42.140;24.762;2022-11-20T08:50:08;16.55;;;6.82;;
73869;SDS011;64924;42.140;24.762;2022-11-20T08:52:34;14.95;;;6.78;;
73869;SDS011;64924;42.140;24.762;2022-11-20T08:55:00;15.15;;;7.25;;
73869;SDS011;64924;42.140;24.762;2022-11-20T08:57:25;16.02;;;7.22;;
73869;SDS011;64924;42.140;24.762;2022-11-20T08:59:50;11.05;;;5.38;;
73869;SDS011;64924;42.140;24.762;2022-11-20T09:02:16;15.05;;;6.38;;
73869;SDS011;64924;42.140;24.762;2022-11-20T09:04:41;17.17;;;7.03;;
73869;SDS011;64924;42.140;24.762;2022-11-20T09:07:07;14.90;;;6.03;;
73869;SDS011;64924;42.140;24.762;2022-11-20T09:09:32;9.45;;;5.00;;
73869;SDS011;64924;42.140;24.762;2022-11-20T09:11:58;9.98;;;5.03;;
73869;SDS011;64924;42.140;24.762;2022-11-20T09:14:23;12.10;;;6.22;;
73869;SDS011;64924;42.140;24.762;2022-11-20T09:16:54;14.18;;;6.22;;
73869;SDS011;64924;42.140;24.762;2022-11-20T09:19:20;24.00;;;11.75;;
73869;SDS011;64924;42.140;24.762;2022-11-20T09:21:45;27.73;;;11.77;;
73869;SDS011;64924;42.140;24.762;2022-11-20T09:24:11;19.95;;;9.80;;
73869;SDS011;64924;42.140;24.762;2022-11-20T09:26:37;20.85;;;10.48;;
73869;SDS011;64924;42.140;24.762;2022-11-20T09:29:02;19.42;;;10.98;;
73869;SDS011;64924;42.140;24.762;2022-11-20T09:31:28;20.48;;;10.93;;
73869;SDS011;64924;42.140;24.762;2022-11-20T09:33:53;21.52;;;11.90;;
73869;SDS011;64924;42.140;24.762;2022-11-20T09:36:19;21.48;;;10.35;;
73869;SDS011;64924;42.140;24.762;2022-11-20T09:38:45;12.38;;;8.10;;
73869;SDS011;64924;42.140;24.762;2022-11-20T09:49:49;16.05;;;7.55;;
73869;SDS011;64924;42.140;24.762;2022-11-20T09:55:30;11.05;;;4.70;;
73869;SDS011;64924;42.140;24.762;2022-11-20T09:57:56;12.38;;;4.68;;
73869;SDS011;64924;42.140;24.762;2022-11-20T10:00:24;10.05;;;4.57;;
73869;SDS011;64924;42.140;24.762;2022-11-20T10:03:35;10.90;;;4.85;;
73869;SDS011;64924;42.140;24.762;2022-11-20T10:05:47;7.38;;;3.38;;
73869;SDS011;64924;42.140;24.762;2022-11-20T10:11:05;12.02;;;4.85;;
73869;SDS011;64924;42.140;24.762;2022-11-20T10:29:29;11.32;;;4.60;;
73869;SDS011;64924;42.140;24.762;2022-11-20T10:32:02;13.27;;;5.55;;
73869;SDS011;64924;42.140;24.762;2022-11-20T10:34:35;12.32;;;4.95;;
73869;SDS011;64924;42.140;24.762;2022-11-20T10:37:15;15.93;;;5.53;;
73869;SDS011;64924;42.140;24.762;2022-11-20T10:42:36;17.67;;;7.43;;
73869;SDS011;64924;42.140;24.762;2022-11-20T10:47:54;21.50;;;6.55;;
73869;SDS011;64924;42.140;24.762;2022-11-20T10:50:33;21.55;;;8.15;;
73869;SDS011;64924;42.140;24.762;2022-11-20T10:55:54;16.00;;;8.38;;
73869;SDS011;64924;42.140;24.762;2022-11-20T10:58:29;19.08;;;7.63;;
73869;SDS011;64924;42.140;24.762;2022-11-20T11:01:06;18.17;;;7.72;;
73869;SDS011;64924;42.140;24.762;2022-11-20T11:03:39;16.08;;;6.85;;
73869;SDS011;64924;42.140;24.762;2022-11-20T11:08:39;29.55;;;8.50;;
73869;SDS011;64924;42.140;24.762;2022-11-20T11:13:47;34.75;;;9.13;;
73869;SDS011;64924;42.140;24.762;2022-11-20T11:16:18;18.45;;;7.43;;
73869;SDS011;64924;42.140;24.762;2022-11-20T11:18:46;22.58;;;8.18;;
73869;SDS011;64924;42.140;24.762;2022-11-20T11:21:11;52.08;;;14.02;;
73869;SDS011;64924;42.140;24.762;2022-11-20T11:23:38;385.48;;;171.07;;
73869;SDS011;64924;42.140;24.762;2022-11-20T11:26:06;221.05;;;100.70;;
73869;SDS011;64924;42.140;24.762;2022-11-20T11:28:52;198.80;;;83.13;;
73869;SDS011;64924;42.140;24.762;2022-11-20T11:31:33;77.90;;;28.38;;
73869;SDS011;64924;42.140;24.762;2022-11-20T11:34:03;33.95;;;14.68;;
73869;SDS011;64924;42.140;24.762;2022-11-20T11:36:29;113.85;;;46.28;;
73869;SDS011;64924;42.140;24.762;2022-11-20T11:38:55;40.22;;;16.05;;
73869;SDS011;64924;42.140;24.762;2022-11-20T11:41:22;35.83;;;15.35;;
73869;SDS011;64924;42.140;24.762;2022-11-20T11:43:54;112.25;;;63.03;;
73869;SDS011;64924;42.140;24.762;2022-11-20T11:49:15;29.83;;;9.95;;
73869;SDS011;64924;42.140;24.762;2022-11-20T11:54:28;56.00;;;22.65;;
73869;SDS011;64924;42.140;24.762;2022-11-20T11:57:04;25.08;;;7.63;;
73869;SDS011;64924;42.140;24.762;2022-11-20T11:59:45;54.15;;;19.00;;
73869;SDS011;64924;42.140;24.762;2022-11-20T12:02:31;25.27;;;7.60;;
73869;SDS011;64924;42.140;24.762;2022-11-20T12:05:29;21.70;;;6.55;;
73869;SDS011;64924;42.140;24.762;2022-11-20T12:13:48;21.15;;;7.47;;
73869;SDS011;64924;42.140;24.762;2022-11-20T12:16:33;19.95;;;7.25;;
73869;SDS011;64924;42.140;24.762;2022-11-20T12:19:02;26.92;;;7.18;;
73869;SDS011;64924;42.140;24.762;2022-11-20T12:24:32;20.35;;;6.53;;
73869;SDS011;64924;42.140;24.762;2022-11-20T12:34:42;18.67;;;6.80;;
73869;SDS011;64924;42.140;24.762;2022-11-20T13:02:35;23.73;;;6.63;;
73869;SDS011;64924;42.140;24.762;2022-11-20T13:05:22;21.92;;;6.47;;
73869;SDS011;64924;42.140;24.762;2022-11-20T13:07:53;17.60;;;5.53;;
73869;SDS011;64924;42.140;24.762;2022-11-20T13:10:42;23.10;;;7.45;;
73869;SDS011;64924;42.140;24.762;2022-11-20T13:15:49;22.67;;;6.07;;
73869;SDS011;64924;42.140;24.762;2022-11-20T13:18:30;22.02;;;6.70;;
73869;SDS011;64924;42.140;24.762;2022-11-20T13:21:12;18.52;;;6.10;;
73869;SDS011;64924;42.140;24.762;2022-11-20T13:23:42;21.35;;;6.10;;
73869;SDS011;64924;42.140;24.762;2022-11-20T13:26:22;21.67;;;7.72;;
73869;SDS011;64924;42.140;24.762;2022-11-20T13:28:59;20.92;;;7.55;;
73869;SDS011;64924;42.140;24.762;2022-11-20T13:31:34;21.02;;;7.90;;
73869;SDS011;64924;42.140;24.762;2022-11-20T13:34:01;18.75;;;7.47;;
73869;SDS011;64924;42.140;24.762;2022-11-20T13:36:29;19.67;;;7.90;;
73869;SDS011;64924;42.140;24.762;2022-11-20T13:38:57;22.95;;;6.50;;
73869;SDS011;64924;42.140;24.762;2022-11-20T13:41:28;19.88;;;5.30;;
73869;SDS011;64924;42.140;24.762;2022-11-20T13:44:33;18.60;;;5.68;;
73869;SDS011;64924;42.140;24.762;2022-11-20T13:46:51;20.73;;;4.30;;
73869;SDS011;64924;42.140;24.762;2022-11-20T13:49:25;14.60;;;4.50;;
73869;SDS011;64924;42.140;24.762;2022-11-20T13:52:42;21.50;;;4.65;;
73869;SDS011;64924;42.140;24.762;2022-11-20T13:55:02;20.38;;;3.40;;
73869;SDS011;64924;42.140;24.762;2022-11-20T14:00:32;19.98;;;4.75;;
73869;SDS011;64924;42.140;24.762;2022-11-20T14:02:59;15.07;;;3.60;;
73869;SDS011;64924;42.140;24.762;2022-11-20T14:05:49;26.80;;;3.85;;
73869;SDS011;64924;42.140;24.762;2022-11-20T14:08:27;17.63;;;2.63;;
73869;SDS011;64924;42.140;24.762;2022-11-20T14:11:30;20.90;;;2.22;;
73869;SDS011;64924;42.140;24.762;2022-11-20T14:16:30;6.85;;;1.83;;
73869;SDS011;64924;42.140;24.762;2022-11-20T14:19:00;10.20;;;1.70;;
73869;SDS011;64924;42.140;24.762;2022-11-20T14:21:42;5.40;;;1.70;;
73869;SDS011;64924;42.140;24.762;2022-11-20T14:24:10;7.40;;;2.15;;
73869;SDS011;64924;42.140;24.762;2022-11-20T14:26:37;4.22;;;1.83;;
73869;SDS011;64924;42.140;24.762;2022-11-20T14:31:42;6.90;;;2.42;;
73869;SDS011;64924;42.140;24.762;2022-11-20T14:34:14;4.25;;;1.05;;
73869;SDS011;64924;42.140;24.762;2022-11-20T14:36:43;4.38;;;1.77;;
73869;SDS011;64924;42.140;24.762;2022-11-20T14:39:11;3.05;;;1.70;;
73869;SDS011;64924;42.140;24.762;2022-11-20T14:41:37;4.72;;;1.33;;
73869;SDS011;64924;42.140;24.762;2022-11-20T14:44:03;18.52;;;6.60;;
73869;SDS011;64924;42.140;24.762;2022-11-20T14:46:29;24.40;;;13.80;;
73869;SDS011;64924;42.140;24.762;2022-11-20T14:49:00;9.93;;;4.53;;
73869;SDS011;64924;42.140;24.762;2022-11-20T14:51:37;12.98;;;5.07;;
73869;SDS011;64924;42.140;24.762;2022-11-20T14:54:16;12.43;;;5.18;;
73869;SDS011;64924;42.140;24.762;2022-11-20T14:56:56;4.05;;;1.42;;
73869;SDS011;64924;42.140;24.762;2022-11-20T15:01:54;7.90;;;1.67;;
73869;SDS011;64924;42.140;24.762;2022-11-20T15:04:22;8.25;;;2.25;;
73869;SDS011;64924;42.140;24.762;2022-11-20T15:06:52;6.50;;;1.80;;
73869;SDS011;64924;42.140;24.762;2022-11-20T15:09:22;15.68;;;6.18;;
73869;SDS011;64924;42.140;24.762;2022-11-20T15:11:58;6.88;;;2.55;;
73869;SDS011;64924;42.140;24.762;2022-11-20T15:16:55;6.55;;;2.33;;
73869;SDS011;64924;42.140;24.762;2022-11-20T15:19:24;3.80;;;1.92;;
73869;SDS011;64924;42.140;24.762;2022-11-20T15:21:51;14.48;;;3.05;;
73869;SDS011;64924;42.140;24.762;2022-11-20T15:24:17;8.23;;;2.33;;
73869;SDS011;64924;42.140;24.762;2022-11-20T15:26:43;7.82;;;2.30;;
73869;SDS011;64924;42.140;24.762;2022-11-20T15:29:09;5.82;;;2.58;;
73869;SDS011;64924;42.140;24.762;2022-11-20T15:31:37;9.63;;;2.58;;
73869;SDS011;64924;42.140;24.762;2022-11-20T15:34:08;12.23;;;2.72;;
73869;SDS011;64924;42.140;24.762;2022-11-20T15:36:41;9.07;;;3.63;;
73869;SDS011;64924;42.140;24.762;2022-11-20T15:39:08;9.15;;;4.22;;
73869;SDS011;64924;42.140;24.762;2022-11-20T15:41:34;9.73;;;4.30;;
73869;SDS011;64924;42.140;24.762;2022-11-20T15:44:01;5.43;;;2.97;;
73869;SDS011;64924;42.140;24.762;2022-11-20T15:46:27;9.43;;;2.42;;
73869;SDS011;64924;42.140;24.762;2022-11-20T15:48:56;8.93;;;3.33;;
73869;SDS011;64924;42.140;24.762;2022-11-20T15:53:50;11.40;;;5.10;;
73869;SDS011;64924;42.140;24.762;2022-11-20T15:56:16;9.35;;;3.63;;
73869;SDS011;64924;42.140;24.762;2022-11-20T15:58:41;7.50;;;2.25;;
73869;SDS011;64924;42.140;24.762;2022-11-20T16:01:14;8.57;;;2.47;;
73869;SDS011;64924;42.140;24.762;2022-11-20T16:03:41;6.10;;;2.33;;
73869;SDS011;64924;42.140;24.762;2022-11-20T16:06:07;5.95;;;1.85;;
73869;SDS011;64924;42.140;24.762;2022-11-20T16:08:32;7.95;;;2.08;;
73869;SDS011;64924;42.140;24.762;2022-11-20T16:10:58;4.93;;;1.80;;
73869;SDS011;64924;42.140;24.762;2022-11-20T16:13:23;6.13;;;2.10;;
73869;SDS011;64924;42.140;24.762;2022-11-20T16:16:11;6.75;;;1.50;;
73869;SDS011;64924;42.140;24.762;2022-11-20T16:18:45;5.05;;;2.30;;